Airfield :
LOGIN :

Register | Disclaimer

   EN    FR    IT 

 










Legend :    VFR   Marginal VFR   IFR   Intensive IFR   Very Intensive IFR
Visi :
Ceiling :
>= 8 km
>= 3000ft
5 to 8 km
1000 to 3000 ft
1500m to 5 km
500 to 1000 ft
800 to 1500m
200 to 500 ft
< 800m
< 200 ft
Symbols :   Thunderstorms  Fog  Heavy snow  Heavy precipitations  Wind > 20 kt
SIGMETs :     Misc.  Thunderstorms  Icing  Turbulence  Mountain Waves  Volcanic Ashes







- Airport Elevation : 290 ft
- IATA code : ACI
- Download approach charts


EGJA - Alderney

CURRENT METAR :
  • 231450Z 04011KT 4000 HZ SCT004 BKN037 10/09 Q1030

EXPIRED METARs :
  • 231420Z 04008KT 020V080 4000 BR BKN004 10/09 Q1031
  • 231350Z 04008KT 4000 BR BKN004 10/09 Q1031
  • 231320Z 04006KT 4000 HZ SCT005 BKN035 11/09 Q1031
  • 231250Z 03007KT 6000 SCT007 BKN035 11/09 Q1031
  • 231220Z 04006KT 010V070 7000 BKN007 BKN033 11/09 Q1031
  • 231150Z 03005KT 350V070 7000 BKN007 11/09 Q1031

TAF TAF EGJA
Valid from the 23 at 15:00 until the 24 at 00:00 UTC


231403Z 2315/2324 05010KT 3000 BR BKN003
PROB30
TEMPO 2315/2319 5000 BKN006
No reported NOTAMs for that airfield.



MET'MAP, your aeronautical weather chart ! - Copyright ORBIFLY December 2007 - Disclaimer

ORBIFLY MET'MAP TEAM :

Programming & Development : Alexandra Zaïnal
Concept & Development : Baudouin d'Aumeries
Co-Development & Prog : Marc-Olivier Méhu
Technical & hardware support : Manuel Goepfert

Contact : metmap@orbifly.com




SOURCES & CREDITS :

   NOAA